sensor_id;sensor_type;location;lat;lon;timestamp;P1;durP1;ratioP1;P2;durP2;ratioP2
13279;SDS011;6708;49.814;8.652;2024-03-29T00:00:34;1.20;;;0.60;;
13279;SDS011;6708;49.814;8.652;2024-03-29T00:03:03;0.83;;;0.40;;
13279;SDS011;6708;49.814;8.652;2024-03-29T00:05:29;0.57;;;0.33;;
13279;SDS011;6708;49.814;8.652;2024-03-29T00:07:55;0.57;;;0.47;;
13279;SDS011;6708;49.814;8.652;2024-03-29T00:10:20;4.23;;;0.47;;
13279;SDS011;6708;49.814;8.652;2024-03-29T00:12:46;0.53;;;0.50;;
13279;SDS011;6708;49.814;8.652;2024-03-29T00:15:12;0.63;;;0.57;;
13279;SDS011;6708;49.814;8.652;2024-03-29T00:17:38;2.47;;;0.47;;
13279;SDS011;6708;49.814;8.652;2024-03-29T00:20:07;1.47;;;0.50;;
13279;SDS011;6708;49.814;8.652;2024-03-29T00:22:34;0.77;;;0.50;;
13279;SDS011;6708;49.814;8.652;2024-03-29T00:24:59;0.30;;;0.30;;
13279;SDS011;6708;49.814;8.652;2024-03-29T00:27:25;1.20;;;0.70;;
13279;SDS011;6708;49.814;8.652;2024-03-29T00:29:51;0.67;;;0.40;;
13279;SDS011;6708;49.814;8.652;2024-03-29T00:32:17;1.10;;;0.57;;
13279;SDS011;6708;49.814;8.652;2024-03-29T00:34:43;0.40;;;0.40;;
13279;SDS011;6708;49.814;8.652;2024-03-29T00:37:12;3.87;;;0.40;;
13279;SDS011;6708;49.814;8.652;2024-03-29T00:39:38;0.67;;;0.50;;
13279;SDS011;6708;49.814;8.652;2024-03-29T00:42:04;0.33;;;0.33;;
13279;SDS011;6708;49.814;8.652;2024-03-29T00:44:29;0.70;;;0.40;;
13279;SDS011;6708;49.814;8.652;2024-03-29T00:46:55;1.87;;;0.50;;
13279;SDS011;6708;49.814;8.652;2024-03-29T00:49:21;0.50;;;0.50;;
13279;SDS011;6708;49.814;8.652;2024-03-29T00:51:47;0.97;;;0.30;;
13279;SDS011;6708;49.814;8.652;2024-03-29T00:54:15;1.30;;;0.43;;
13279;SDS011;6708;49.814;8.652;2024-03-29T00:56:41;0.40;;;0.40;;
13279;SDS011;6708;49.814;8.652;2024-03-29T00:59:07;1.63;;;0.60;;
13279;SDS011;6708;49.814;8.652;2024-03-29T01:01:33;0.40;;;0.40;;
13279;SDS011;6708;49.814;8.652;2024-03-29T01:03:59;0.60;;;0.60;;
13279;SDS011;6708;49.814;8.652;2024-03-29T01:06:25;0.70;;;0.70;;
13279;SDS011;6708;49.814;8.652;2024-03-29T01:08:51;0.53;;;0.37;;
13279;SDS011;6708;49.814;8.652;2024-03-29T01:11:19;0.80;;;0.70;;
13279;SDS011;6708;49.814;8.652;2024-03-29T01:13:45;1.97;;;0.80;;
13279;SDS011;6708;49.814;8.652;2024-03-29T01:16:11;1.00;;;0.43;;
13279;SDS011;6708;49.814;8.652;2024-03-29T01:18:36;0.50;;;0.50;;
13279;SDS011;6708;49.814;8.652;2024-03-29T01:21:02;0.70;;;0.70;;
13279;SDS011;6708;49.814;8.652;2024-03-29T01:23:28;1.43;;;0.77;;
13279;SDS011;6708;49.814;8.652;2024-03-29T01:25:54;0.83;;;0.60;;
13279;SDS011;6708;49.814;8.652;2024-03-29T01:28:22;1.53;;;1.00;;
13279;SDS011;6708;49.814;8.652;2024-03-29T01:30:51;0.60;;;0.60;;
13279;SDS011;6708;49.814;8.652;2024-03-29T01:33:17;0.57;;;0.57;;
13279;SDS011;6708;49.814;8.652;2024-03-29T01:35:43;4.20;;;0.97;;
13279;SDS011;6708;49.814;8.652;2024-03-29T01:38:09;0.60;;;0.60;;
13279;SDS011;6708;49.814;8.652;2024-03-29T01:40:35;0.83;;;0.57;;
13279;SDS011;6708;49.814;8.652;2024-03-29T01:43:01;0.73;;;0.50;;
13279;SDS011;6708;49.814;8.652;2024-03-29T01:45:29;0.67;;;0.60;;
13279;SDS011;6708;49.814;8.652;2024-03-29T01:47:56;0.60;;;0.50;;
13279;SDS011;6708;49.814;8.652;2024-03-29T01:50:22;2.03;;;0.63;;
13279;SDS011;6708;49.814;8.652;2024-03-29T01:52:48;1.33;;;0.63;;
13279;SDS011;6708;49.814;8.652;2024-03-29T01:55:14;0.37;;;0.33;;
13279;SDS011;6708;49.814;8.652;2024-03-29T01:57:40;0.40;;;0.40;;
13279;SDS011;6708;49.814;8.652;2024-03-29T02:00:07;0.97;;;0.60;;
13279;SDS011;6708;49.814;8.652;2024-03-29T02:02:36;0.90;;;0.50;;
13279;SDS011;6708;49.814;8.652;2024-03-29T02:05:02;0.50;;;0.50;;
13279;SDS011;6708;49.814;8.652;2024-03-29T02:07:29;1.10;;;0.70;;
13279;SDS011;6708;49.814;8.652;2024-03-29T02:09:55;0.40;;;0.40;;
13279;SDS011;6708;49.814;8.652;2024-03-29T02:12:21;0.70;;;0.23;;
13279;SDS011;6708;49.814;8.652;2024-03-29T02:14:47;1.07;;;0.43;;
13279;SDS011;6708;49.814;8.652;2024-03-29T02:17:13;1.30;;;0.77;;
13279;SDS011;6708;49.814;8.652;2024-03-29T02:19:41;0.60;;;0.60;;
13279;SDS011;6708;49.814;8.652;2024-03-29T02:22:07;2.70;;;0.70;;
13279;SDS011;6708;49.814;8.652;2024-03-29T02:24:35;0.93;;;0.60;;
13279;SDS011;6708;49.814;8.652;2024-03-29T02:27:01;1.03;;;0.70;;
13279;SDS011;6708;49.814;8.652;2024-03-29T02:29:29;1.00;;;0.77;;
13279;SDS011;6708;49.814;8.652;2024-03-29T02:31:55;2.53;;;1.07;;
13279;SDS011;6708;49.814;8.652;2024-03-29T02:34:21;0.60;;;0.50;;
13279;SDS011;6708;49.814;8.652;2024-03-29T02:36:47;1.10;;;0.70;;
13279;SDS011;6708;49.814;8.652;2024-03-29T02:39:12;0.83;;;0.50;;
13279;SDS011;6708;49.814;8.652;2024-03-29T02:41:41;0.87;;;0.70;;
13279;SDS011;6708;49.814;8.652;2024-03-29T02:44:06;0.73;;;0.73;;
13279;SDS011;6708;49.814;8.652;2024-03-29T02:46:32;1.87;;;0.80;;
13279;SDS011;6708;49.814;8.652;2024-03-29T02:48:58;3.23;;;0.87;;
13279;SDS011;6708;49.814;8.652;2024-03-29T02:51:24;2.53;;;0.80;;
13279;SDS011;6708;49.814;8.652;2024-03-29T02:53:49;0.80;;;0.80;;
13279;SDS011;6708;49.814;8.652;2024-03-29T02:56:15;1.63;;;0.80;;
13279;SDS011;6708;49.814;8.652;2024-03-29T02:58:44;1.20;;;0.60;;
13279;SDS011;6708;49.814;8.652;2024-03-29T03:01:10;1.27;;;0.70;;
13279;SDS011;6708;49.814;8.652;2024-03-29T03:03:36;1.90;;;1.10;;
13279;SDS011;6708;49.814;8.652;2024-03-29T03:06:02;0.70;;;0.60;;
13279;SDS011;6708;49.814;8.652;2024-03-29T03:08:29;0.57;;;0.57;;
13279;SDS011;6708;49.814;8.652;2024-03-29T03:11:09;3.57;;;0.90;;
13279;SDS011;6708;49.814;8.652;2024-03-29T03:13:35;2.63;;;0.83;;
13279;SDS011;6708;49.814;8.652;2024-03-29T03:16:04;1.07;;;0.80;;
13279;SDS011;6708;49.814;8.652;2024-03-29T03:18:30;0.77;;;0.77;;
13279;SDS011;6708;49.814;8.652;2024-03-29T03:20:56;1.70;;;0.80;;
13279;SDS011;6708;49.814;8.652;2024-03-29T03:23:22;2.17;;;0.87;;
13279;SDS011;6708;49.814;8.652;2024-03-29T03:25:53;3.13;;;1.33;;
13279;SDS011;6708;49.814;8.652;2024-03-29T03:28:19;1.77;;;1.03;;
13279;SDS011;6708;49.814;8.652;2024-03-29T03:30:44;2.03;;;0.73;;
13279;SDS011;6708;49.814;8.652;2024-03-29T03:33:13;1.70;;;0.60;;
13279;SDS011;6708;49.814;8.652;2024-03-29T03:35:38;0.90;;;0.67;;
13279;SDS011;6708;49.814;8.652;2024-03-29T03:38:04;1.10;;;1.00;;
13279;SDS011;6708;49.814;8.652;2024-03-29T03:40:30;1.63;;;0.90;;
13279;SDS011;6708;49.814;8.652;2024-03-29T03:42:56;1.33;;;0.70;;
13279;SDS011;6708;49.814;8.652;2024-03-29T03:45:22;1.53;;;0.80;;
13279;SDS011;6708;49.814;8.652;2024-03-29T03:47:47;2.13;;;0.77;;
13279;SDS011;6708;49.814;8.652;2024-03-29T03:50:16;1.43;;;0.93;;
13279;SDS011;6708;49.814;8.652;2024-03-29T03:52:42;1.37;;;1.37;;
13279;SDS011;6708;49.814;8.652;2024-03-29T03:55:08;0.93;;;0.70;;
13279;SDS011;6708;49.814;8.652;2024-03-29T03:57:33;0.97;;;0.70;;
13279;SDS011;6708;49.814;8.652;2024-03-29T03:59:59;1.03;;;1.00;;
13279;SDS011;6708;49.814;8.652;2024-03-29T04:02:25;0.90;;;0.80;;
13279;SDS011;6708;49.814;8.652;2024-03-29T04:04:51;1.70;;;0.63;;
13279;SDS011;6708;49.814;8.652;2024-03-29T04:07:19;1.37;;;0.60;;
13279;SDS011;6708;49.814;8.652;2024-03-29T04:09:45;1.77;;;1.20;;
13279;SDS011;6708;49.814;8.652;2024-03-29T04:12:11;1.60;;;1.50;;
13279;SDS011;6708;49.814;8.652;2024-03-29T04:14:36;1.70;;;1.60;;
13279;SDS011;6708;49.814;8.652;2024-03-29T04:17:02;3.57;;;1.03;;
13279;SDS011;6708;49.814;8.652;2024-03-29T04:19:28;0.80;;;0.80;;
13279;SDS011;6708;49.814;8.652;2024-03-29T04:21:54;2.37;;;0.70;;
13279;SDS011;6708;49.814;8.652;2024-03-29T04:24:22;1.10;;;1.00;;
13279;SDS011;6708;49.814;8.652;2024-03-29T04:26:48;0.93;;;0.70;;
13279;SDS011;6708;49.814;8.652;2024-03-29T04:29:14;0.77;;;0.70;;
13279;SDS011;6708;49.814;8.652;2024-03-29T04:31:39;1.23;;;0.70;;
13279;SDS011;6708;49.814;8.652;2024-03-29T04:34:05;2.43;;;0.67;;
13279;SDS011;6708;49.814;8.652;2024-03-29T04:36:31;0.60;;;0.60;;
13279;SDS011;6708;49.814;8.652;2024-03-29T04:38:57;1.17;;;0.60;;
13279;SDS011;6708;49.814;8.652;2024-03-29T04:41:25;1.60;;;0.77;;
13279;SDS011;6708;49.814;8.652;2024-03-29T04:43:51;0.80;;;0.80;;
13279;SDS011;6708;49.814;8.652;2024-03-29T04:46:17;1.10;;;1.00;;
13279;SDS011;6708;49.814;8.652;2024-03-29T04:48:42;1.20;;;0.60;;
13279;SDS011;6708;49.814;8.652;2024-03-29T04:51:08;2.20;;;0.60;;
13279;SDS011;6708;49.814;8.652;2024-03-29T04:53:35;1.37;;;0.87;;
13279;SDS011;6708;49.814;8.652;2024-03-29T04:56:01;1.03;;;0.77;;
13279;SDS011;6708;49.814;8.652;2024-03-29T04:58:29;0.50;;;0.50;;
13279;SDS011;6708;49.814;8.652;2024-03-29T05:00:55;2.83;;;0.97;;
13279;SDS011;6708;49.814;8.652;2024-03-29T05:03:21;0.77;;;0.40;;
13279;SDS011;6708;49.814;8.652;2024-03-29T05:05:47;0.53;;;0.50;;
13279;SDS011;6708;49.814;8.652;2024-03-29T05:08:14;0.30;;;0.30;;
13279;SDS011;6708;49.814;8.652;2024-03-29T05:10:40;0.37;;;0.30;;
13279;SDS011;6708;49.814;8.652;2024-03-29T05:13:06;0.20;;;0.17;;
13279;SDS011;6708;49.814;8.652;2024-03-29T05:15:34;0.17;;;0.17;;
13279;SDS011;6708;49.814;8.652;2024-03-29T05:18:00;0.67;;;0.10;;
13279;SDS011;6708;49.814;8.652;2024-03-29T05:20:26;0.53;;;0.30;;
13279;SDS011;6708;49.814;8.652;2024-03-29T05:22:52;0.33;;;0.30;;
13279;SDS011;6708;49.814;8.652;2024-03-29T05:25:17;0.63;;;0.23;;
13279;SDS011;6708;49.814;8.652;2024-03-29T05:27:43;0.20;;;0.20;;
13279;SDS011;6708;49.814;8.652;2024-03-29T05:30:09;0.50;;;0.40;;
13279;SDS011;6708;49.814;8.652;2024-03-29T05:32:38;0.43;;;0.23;;
13279;SDS011;6708;49.814;8.652;2024-03-29T05:35:04;0.20;;;0.20;;
13279;SDS011;6708;49.814;8.652;2024-03-29T05:37:30;0.43;;;0.30;;
13279;SDS011;6708;49.814;8.652;2024-03-29T05:39:56;0.60;;;0.40;;
13279;SDS011;6708;49.814;8.652;2024-03-29T05:42:24;0.20;;;0.20;;
13279;SDS011;6708;49.814;8.652;2024-03-29T05:44:50;0.93;;;0.20;;
13279;SDS011;6708;49.814;8.652;2024-03-29T05:47:16;0.30;;;0.20;;
13279;SDS011;6708;49.814;8.652;2024-03-29T05:49:44;0.30;;;0.27;;
13279;SDS011;6708;49.814;8.652;2024-03-29T05:52:10;1.03;;;0.30;;
13279;SDS011;6708;49.814;8.652;2024-03-29T05:54:36;0.43;;;0.30;;
13279;SDS011;6708;49.814;8.652;2024-03-29T05:57:01;0.40;;;0.40;;
13279;SDS011;6708;49.814;8.652;2024-03-29T05:59:27;0.17;;;0.17;;
13279;SDS011;6708;49.814;8.652;2024-03-29T06:01:53;0.47;;;0.30;;
13279;SDS011;6708;49.814;8.652;2024-03-29T06:04:19;0.30;;;0.30;;
13279;SDS011;6708;49.814;8.652;2024-03-29T06:06:47;0.40;;;0.33;;
13279;SDS011;6708;49.814;8.652;2024-03-29T06:09:13;0.30;;;0.30;;
13279;SDS011;6708;49.814;8.652;2024-03-29T06:11:39;0.50;;;0.30;;
13279;SDS011;6708;49.814;8.652;2024-03-29T06:14:05;0.30;;;0.27;;
13279;SDS011;6708;49.814;8.652;2024-03-29T06:16:46;0.80;;;0.30;;
13279;SDS011;6708;49.814;8.652;2024-03-29T06:19:26;0.23;;;0.20;;
13279;SDS011;6708;49.814;8.652;2024-03-29T06:21:55;0.43;;;0.30;;
13279;SDS011;6708;49.814;8.652;2024-03-29T06:24:21;0.30;;;0.30;;
13279;SDS011;6708;49.814;8.652;2024-03-29T06:26:46;0.63;;;0.30;;
13279;SDS011;6708;49.814;8.652;2024-03-29T06:29:12;0.17;;;0.17;;
13279;SDS011;6708;49.814;8.652;2024-03-29T06:31:38;0.23;;;0.13;;
13279;SDS011;6708;49.814;8.652;2024-03-29T06:34:04;0.83;;;0.40;;
13279;SDS011;6708;49.814;8.652;2024-03-29T06:36:29;0.30;;;0.30;;
13279;SDS011;6708;49.814;8.652;2024-03-29T06:38:58;0.43;;;0.30;;
13279;SDS011;6708;49.814;8.652;2024-03-29T06:41:24;0.20;;;0.20;;
13279;SDS011;6708;49.814;8.652;2024-03-29T06:43:49;0.70;;;0.30;;
13279;SDS011;6708;49.814;8.652;2024-03-29T06:46:15;0.50;;;0.50;;
13279;SDS011;6708;49.814;8.652;2024-03-29T06:48:41;0.30;;;0.30;;
13279;SDS011;6708;49.814;8.652;2024-03-29T06:51:07;0.93;;;0.23;;
13279;SDS011;6708;49.814;8.652;2024-03-29T06:53:33;2.43;;;0.30;;
13279;SDS011;6708;49.814;8.652;2024-03-29T06:56:02;0.30;;;0.30;;
13279;SDS011;6708;49.814;8.652;2024-03-29T06:58:28;0.40;;;0.40;;
13279;SDS011;6708;49.814;8.652;2024-03-29T07:00:54;0.20;;;0.20;;
13279;SDS011;6708;49.814;8.652;2024-03-29T07:03:20;5.40;;;0.50;;
13279;SDS011;6708;49.814;8.652;2024-03-29T07:05:46;0.50;;;0.30;;
13279;SDS011;6708;49.814;8.652;2024-03-29T07:08:12;0.87;;;0.37;;
13279;SDS011;6708;49.814;8.652;2024-03-29T07:10:40;0.50;;;0.50;;
13279;SDS011;6708;49.814;8.652;2024-03-29T07:13:09;0.47;;;0.47;;
13279;SDS011;6708;49.814;8.652;2024-03-29T07:15:35;0.50;;;0.50;;
13279;SDS011;6708;49.814;8.652;2024-03-29T07:18:00;0.40;;;0.40;;
13279;SDS011;6708;49.814;8.652;2024-03-29T07:20:26;1.27;;;0.40;;
13279;SDS011;6708;49.814;8.652;2024-03-29T07:22:52;0.63;;;0.50;;
13279;SDS011;6708;49.814;8.652;2024-03-29T07:25:18;0.80;;;0.30;;
13279;SDS011;6708;49.814;8.652;2024-03-29T07:27:44;1.23;;;0.40;;
13279;SDS011;6708;49.814;8.652;2024-03-29T07:30:13;1.57;;;1.27;;
13279;SDS011;6708;49.814;8.652;2024-03-29T07:32:40;1.70;;;1.57;;
13279;SDS011;6708;49.814;8.652;2024-03-29T07:35:06;0.50;;;0.50;;
13279;SDS011;6708;49.814;8.652;2024-03-29T07:37:33;0.50;;;0.40;;
13279;SDS011;6708;49.814;8.652;2024-03-29T07:39:58;0.40;;;0.40;;
13279;SDS011;6708;49.814;8.652;2024-03-29T07:42:24;0.40;;;0.40;;
13279;SDS011;6708;49.814;8.652;2024-03-29T07:44:50;4.23;;;0.37;;
13279;SDS011;6708;49.814;8.652;2024-03-29T07:47:18;0.47;;;0.30;;
13279;SDS011;6708;49.814;8.652;2024-03-29T07:49:44;0.40;;;0.40;;
13279;SDS011;6708;49.814;8.652;2024-03-29T07:52:10;0.37;;;0.30;;
13279;SDS011;6708;49.814;8.652;2024-03-29T07:54:36;0.57;;;0.57;;
13279;SDS011;6708;49.814;8.652;2024-03-29T07:57:02;0.77;;;0.40;;
13279;SDS011;6708;49.814;8.652;2024-03-29T07:59:28;1.03;;;0.40;;
13279;SDS011;6708;49.814;8.652;2024-03-29T08:01:54;0.33;;;0.27;;
13279;SDS011;6708;49.814;8.652;2024-03-29T08:04:22;0.47;;;0.40;;
13279;SDS011;6708;49.814;8.652;2024-03-29T08:06:48;1.10;;;0.40;;
13279;SDS011;6708;49.814;8.652;2024-03-29T08:09:14;1.40;;;0.33;;
13279;SDS011;6708;49.814;8.652;2024-03-29T08:11:39;0.70;;;0.70;;
13279;SDS011;6708;49.814;8.652;2024-03-29T08:14:05;0.20;;;0.20;;
13279;SDS011;6708;49.814;8.652;2024-03-29T08:16:31;0.83;;;0.60;;
13279;SDS011;6708;49.814;8.652;2024-03-29T08:18:57;0.70;;;0.70;;
13279;SDS011;6708;49.814;8.652;2024-03-29T08:21:26;0.73;;;0.73;;
13279;SDS011;6708;49.814;8.652;2024-03-29T08:23:52;4.00;;;1.40;;
13279;SDS011;6708;49.814;8.652;2024-03-29T08:26:18;1.43;;;1.00;;
13279;SDS011;6708;49.814;8.652;2024-03-29T08:28:44;1.90;;;0.87;;
13279;SDS011;6708;49.814;8.652;2024-03-29T08:31:10;2.33;;;0.87;;
13279;SDS011;6708;49.814;8.652;2024-03-29T08:33:36;1.60;;;1.00;;
13279;SDS011;6708;49.814;8.652;2024-03-29T08:36:03;2.47;;;1.13;;
13279;SDS011;6708;49.814;8.652;2024-03-29T08:38:32;0.70;;;0.70;;
13279;SDS011;6708;49.814;8.652;2024-03-29T08:40:58;1.50;;;1.00;;
13279;SDS011;6708;49.814;8.652;2024-03-29T08:43:23;1.60;;;1.50;;
13279;SDS011;6708;49.814;8.652;2024-03-29T08:45:49;2.80;;;1.90;;
13279;SDS011;6708;49.814;8.652;2024-03-29T08:48:15;1.77;;;1.27;;
13279;SDS011;6708;49.814;8.652;2024-03-29T08:50:41;1.43;;;1.10;;
13279;SDS011;6708;49.814;8.652;2024-03-29T08:53:07;1.37;;;1.30;;
13279;SDS011;6708;49.814;8.652;2024-03-29T08:55:35;6.83;;;2.60;;
13279;SDS011;6708;49.814;8.652;2024-03-29T08:58:01;9.13;;;6.93;;
13279;SDS011;6708;49.814;8.652;2024-03-29T09:00:27;7.63;;;6.57;;
13279;SDS011;6708;49.814;8.652;2024-03-29T09:02:53;9.50;;;6.40;;
13279;SDS011;6708;49.814;8.652;2024-03-29T09:05:19;4.83;;;3.73;;
13279;SDS011;6708;49.814;8.652;2024-03-29T09:07:45;5.13;;;4.20;;
13279;SDS011;6708;49.814;8.652;2024-03-29T09:10:11;3.37;;;3.07;;
13279;SDS011;6708;49.814;8.652;2024-03-29T09:12:40;1.80;;;1.70;;
13279;SDS011;6708;49.814;8.652;2024-03-29T09:15:06;1.80;;;1.27;;
13279;SDS011;6708;49.814;8.652;2024-03-29T09:17:32;1.60;;;1.13;;
13279;SDS011;6708;49.814;8.652;2024-03-29T09:19:58;2.60;;;1.23;;
13279;SDS011;6708;49.814;8.652;2024-03-29T09:22:37;2.33;;;1.33;;
13279;SDS011;6708;49.814;8.652;2024-03-29T09:25:16;0.83;;;0.83;;
13279;SDS011;6708;49.814;8.652;2024-03-29T09:27:44;0.63;;;0.60;;
13279;SDS011;6708;49.814;8.652;2024-03-29T09:30:11;2.17;;;0.63;;
13279;SDS011;6708;49.814;8.652;2024-03-29T09:32:37;2.73;;;0.40;;
13279;SDS011;6708;49.814;8.652;2024-03-29T09:35:03;0.30;;;0.30;;
13279;SDS011;6708;49.814;8.652;2024-03-29T09:37:29;0.50;;;0.30;;
13279;SDS011;6708;49.814;8.652;2024-03-29T09:39:55;2.10;;;0.27;;
13279;SDS011;6708;49.814;8.652;2024-03-29T09:42:21;0.87;;;0.60;;
13279;SDS011;6708;49.814;8.652;2024-03-29T09:44:52;0.50;;;0.30;;
13279;SDS011;6708;49.814;8.652;2024-03-29T09:47:21;0.30;;;0.30;;
13279;SDS011;6708;49.814;8.652;2024-03-29T09:49:47;0.30;;;0.30;;
13279;SDS011;6708;49.814;8.652;2024-03-29T09:52:13;0.93;;;0.40;;
13279;SDS011;6708;49.814;8.652;2024-03-29T09:54:39;0.40;;;0.40;;
13279;SDS011;6708;49.814;8.652;2024-03-29T09:57:05;0.20;;;0.20;;
13279;SDS011;6708;49.814;8.652;2024-03-29T09:59:31;1.27;;;0.37;;
13279;SDS011;6708;49.814;8.652;2024-03-29T10:01:59;0.30;;;0.30;;
13279;SDS011;6708;49.814;8.652;2024-03-29T10:04:25;0.83;;;0.40;;
13279;SDS011;6708;49.814;8.652;2024-03-29T10:06:53;0.37;;;0.37;;
13279;SDS011;6708;49.814;8.652;2024-03-29T10:09:19;0.53;;;0.53;;
13279;SDS011;6708;49.814;8.652;2024-03-29T10:11:46;1.23;;;0.40;;
13279;SDS011;6708;49.814;8.652;2024-03-29T10:14:13;1.60;;;0.40;;
13279;SDS011;6708;49.814;8.652;2024-03-29T10:16:38;4.03;;;0.50;;
13279;SDS011;6708;49.814;8.652;2024-03-29T10:19:07;0.43;;;0.30;;
13279;SDS011;6708;49.814;8.652;2024-03-29T10:21:33;0.40;;;0.40;;
13279;SDS011;6708;49.814;8.652;2024-03-29T10:23:58;2.13;;;0.40;;
13279;SDS011;6708;49.814;8.652;2024-03-29T10:26:24;2.63;;;0.57;;
13279;SDS011;6708;49.814;8.652;2024-03-29T10:28:50;1.33;;;0.60;;
13279;SDS011;6708;49.814;8.652;2024-03-29T10:31:17;0.40;;;0.40;;
13279;SDS011;6708;49.814;8.652;2024-03-29T10:33:43;2.57;;;0.40;;
13279;SDS011;6708;49.814;8.652;2024-03-29T10:36:12;0.70;;;0.53;;
13279;SDS011;6708;49.814;8.652;2024-03-29T10:38:40;0.93;;;0.70;;
13279;SDS011;6708;49.814;8.652;2024-03-29T10:41:06;1.10;;;1.10;;
13279;SDS011;6708;49.814;8.652;2024-03-29T10:43:33;1.50;;;0.70;;
13279;SDS011;6708;49.814;8.652;2024-03-29T10:45:59;0.70;;;0.70;;
13279;SDS011;6708;49.814;8.652;2024-03-29T10:48:25;0.70;;;0.50;;
13279;SDS011;6708;49.814;8.652;2024-03-29T10:50:52;0.30;;;0.20;;
13279;SDS011;6708;49.814;8.652;2024-03-29T10:53:21;0.50;;;0.50;;
13279;SDS011;6708;49.814;8.652;2024-03-29T10:55:48;1.13;;;0.57;;
13279;SDS011;6708;49.814;8.652;2024-03-29T10:58:16;0.37;;;0.20;;
13279;SDS011;6708;49.814;8.652;2024-03-29T11:00:44;0.87;;;0.60;;
13279;SDS011;6708;49.814;8.652;2024-03-29T11:03:12;2.00;;;0.60;;
13279;SDS011;6708;49.814;8.652;2024-03-29T11:05:39;0.30;;;0.30;;
13279;SDS011;6708;49.814;8.652;2024-03-29T11:08:08;0.40;;;0.40;;
13279;SDS011;6708;49.814;8.652;2024-03-29T11:10:39;0.97;;;0.97;;
13279;SDS011;6708;49.814;8.652;2024-03-29T11:13:09;0.63;;;0.63;;
13279;SDS011;6708;49.814;8.652;2024-03-29T11:15:37;0.53;;;0.53;;
13279;SDS011;6708;49.814;8.652;2024-03-29T11:18:03;0.40;;;0.40;;
13279;SDS011;6708;49.814;8.652;2024-03-29T11:20:30;0.30;;;0.30;;
13279;SDS011;6708;49.814;8.652;2024-03-29T11:22:59;0.57;;;0.50;;
13279;SDS011;6708;49.814;8.652;2024-03-29T11:25:39;0.73;;;0.70;;
13279;SDS011;6708;49.814;8.652;2024-03-29T11:28:05;1.30;;;0.73;;
13279;SDS011;6708;49.814;8.652;2024-03-29T11:30:32;0.30;;;0.30;;
13279;SDS011;6708;49.814;8.652;2024-03-29T11:32:57;0.70;;;0.30;;
13279;SDS011;6708;49.814;8.652;2024-03-29T11:35:23;1.13;;;0.33;;
13279;SDS011;6708;49.814;8.652;2024-03-29T11:37:55;1.57;;;0.60;;
13279;SDS011;6708;49.814;8.652;2024-03-29T11:40:22;0.50;;;0.50;;
13279;SDS011;6708;49.814;8.652;2024-03-29T11:42:53;0.37;;;0.37;;
13279;SDS011;6708;49.814;8.652;2024-03-29T11:45:19;0.90;;;0.90;;
13279;SDS011;6708;49.814;8.652;2024-03-29T11:47:45;0.43;;;0.43;;
13279;SDS011;6708;49.814;8.652;2024-03-29T11:50:11;1.00;;;0.50;;
13279;SDS011;6708;49.814;8.652;2024-03-29T11:52:39;0.57;;;0.40;;
13279;SDS011;6708;49.814;8.652;2024-03-29T11:55:05;2.63;;;0.40;;
13279;SDS011;6708;49.814;8.652;2024-03-29T11:57:31;0.20;;;0.20;;
13279;SDS011;6708;49.814;8.652;2024-03-29T11:59:59;0.30;;;0.30;;
13279;SDS011;6708;49.814;8.652;2024-03-29T12:02:25;0.30;;;0.30;;
13279;SDS011;6708;49.814;8.652;2024-03-29T12:04:51;0.33;;;0.33;;
13279;SDS011;6708;49.814;8.652;2024-03-29T12:07:17;1.70;;;0.60;;
13279;SDS011;6708;49.814;8.652;2024-03-29T12:09:42;0.57;;;0.30;;
13279;SDS011;6708;49.814;8.652;2024-03-29T12:12:08;0.50;;;0.50;;
13279;SDS011;6708;49.814;8.652;2024-03-29T12:14:35;0.93;;;0.30;;
13279;SDS011;6708;49.814;8.652;2024-03-29T12:17:03;0.67;;;0.67;;
13279;SDS011;6708;49.814;8.652;2024-03-29T12:19:34;0.37;;;0.37;;
13279;SDS011;6708;49.814;8.652;2024-03-29T12:22:01;0.43;;;0.43;;
13279;SDS011;6708;49.814;8.652;2024-03-29T12:24:28;1.43;;;0.50;;
13279;SDS011;6708;49.814;8.652;2024-03-29T12:26:53;0.60;;;0.60;;
13279;SDS011;6708;49.814;8.652;2024-03-29T12:29:20;0.60;;;0.30;;
13279;SDS011;6708;49.814;8.652;2024-03-29T12:31:55;0.60;;;0.50;;
13279;SDS011;6708;49.814;8.652;2024-03-29T12:34:24;0.50;;;0.50;;
13279;SDS011;6708;49.814;8.652;2024-03-29T12:36:50;0.47;;;0.47;;
13279;SDS011;6708;49.814;8.652;2024-03-29T12:39:16;0.60;;;0.50;;
13279;SDS011;6708;49.814;8.652;2024-03-29T12:41:42;0.90;;;0.70;;
13279;SDS011;6708;49.814;8.652;2024-03-29T12:44:08;2.53;;;0.53;;
13279;SDS011;6708;49.814;8.652;2024-03-29T12:46:34;0.70;;;0.60;;
13279;SDS011;6708;49.814;8.652;2024-03-29T12:49:00;0.70;;;0.70;;
13279;SDS011;6708;49.814;8.652;2024-03-29T12:51:29;0.60;;;0.60;;
13279;SDS011;6708;49.814;8.652;2024-03-29T12:53:55;0.70;;;0.70;;
13279;SDS011;6708;49.814;8.652;2024-03-29T12:56:21;0.77;;;0.77;;
13279;SDS011;6708;49.814;8.652;2024-03-29T12:58:48;0.53;;;0.53;;
13279;SDS011;6708;49.814;8.652;2024-03-29T13:01:13;0.70;;;0.70;;
13279;SDS011;6708;49.814;8.652;2024-03-29T13:03:39;2.43;;;0.80;;
13279;SDS011;6708;49.814;8.652;2024-03-29T13:06:05;0.60;;;0.60;;
13279;SDS011;6708;49.814;8.652;2024-03-29T13:08:34;0.60;;;0.60;;
13279;SDS011;6708;49.814;8.652;2024-03-29T13:11:00;0.60;;;0.60;;
13279;SDS011;6708;49.814;8.652;2024-03-29T13:13:26;0.70;;;0.70;;
13279;SDS011;6708;49.814;8.652;2024-03-29T13:15:52;0.77;;;0.77;;
13279;SDS011;6708;49.814;8.652;2024-03-29T13:18:18;1.13;;;1.07;;
13279;SDS011;6708;49.814;8.652;2024-03-29T13:20:43;0.83;;;0.83;;
13279;SDS011;6708;49.814;8.652;2024-03-29T13:23:10;0.70;;;0.70;;
13279;SDS011;6708;49.814;8.652;2024-03-29T13:25:38;0.90;;;0.90;;
13279;SDS011;6708;49.814;8.652;2024-03-29T13:28:04;1.70;;;0.90;;
13279;SDS011;6708;49.814;8.652;2024-03-29T13:30:30;1.30;;;1.20;;
13279;SDS011;6708;49.814;8.652;2024-03-29T13:32:56;1.30;;;1.20;;
13279;SDS011;6708;49.814;8.652;2024-03-29T13:35:25;1.97;;;1.77;;
13279;SDS011;6708;49.814;8.652;2024-03-29T13:37:51;1.50;;;1.40;;
13279;SDS011;6708;49.814;8.652;2024-03-29T13:40:18;1.30;;;1.20;;
13279;SDS011;6708;49.814;8.652;2024-03-29T13:42:47;0.80;;;0.80;;
13279;SDS011;6708;49.814;8.652;2024-03-29T13:45:13;1.23;;;0.40;;
13279;SDS011;6708;49.814;8.652;2024-03-29T13:47:39;0.30;;;0.30;;
13279;SDS011;6708;49.814;8.652;2024-03-29T13:50:07;0.30;;;0.30;;
13279;SDS011;6708;49.814;8.652;2024-03-29T13:52:34;0.30;;;0.30;;
13279;SDS011;6708;49.814;8.652;2024-03-29T13:55:00;0.40;;;0.40;;
13279;SDS011;6708;49.814;8.652;2024-03-29T13:57:26;0.23;;;0.23;;
13279;SDS011;6708;49.814;8.652;2024-03-29T13:59:54;0.10;;;0.10;;
13279;SDS011;6708;49.814;8.652;2024-03-29T14:02:20;0.30;;;0.30;;
13279;SDS011;6708;49.814;8.652;2024-03-29T14:04:46;1.13;;;0.10;;
13279;SDS011;6708;49.814;8.652;2024-03-29T14:07:13;0.30;;;0.30;;
13279;SDS011;6708;49.814;8.652;2024-03-29T14:09:40;0.20;;;0.20;;
13279;SDS011;6708;49.814;8.652;2024-03-29T14:12:06;0.10;;;0.10;;
13279;SDS011;6708;49.814;8.652;2024-03-29T14:14:32;0.17;;;0.17;;
13279;SDS011;6708;49.814;8.652;2024-03-29T14:17:01;0.60;;;0.30;;
13279;SDS011;6708;49.814;8.652;2024-03-29T14:19:27;1.90;;;0.20;;
13279;SDS011;6708;49.814;8.652;2024-03-29T14:21:53;0.30;;;0.20;;
13279;SDS011;6708;49.814;8.652;2024-03-29T14:24:19;0.30;;;0.10;;
13279;SDS011;6708;49.814;8.652;2024-03-29T14:26:44;0.20;;;0.10;;
13279;SDS011;6708;49.814;8.652;2024-03-29T14:29:10;0.50;;;0.50;;
13279;SDS011;6708;49.814;8.652;2024-03-29T14:31:36;0.30;;;0.30;;
13279;SDS011;6708;49.814;8.652;2024-03-29T14:34:04;0.47;;;0.33;;
13279;SDS011;6708;49.814;8.652;2024-03-29T14:36:30;0.10;;;0.10;;
13279;SDS011;6708;49.814;8.652;2024-03-29T14:38:56;0.43;;;0.43;;
13279;SDS011;6708;49.814;8.652;2024-03-29T14:41:22;0.13;;;0.13;;
13279;SDS011;6708;49.814;8.652;2024-03-29T14:43:49;0.10;;;0.10;;
13279;SDS011;6708;49.814;8.652;2024-03-29T14:46:14;0.10;;;0.10;;
13279;SDS011;6708;49.814;8.652;2024-03-29T14:48:40;0.00;;;0.00;;
13279;SDS011;6708;49.814;8.652;2024-03-29T14:51:08;0.00;;;0.00;;
13279;SDS011;6708;49.814;8.652;2024-03-29T14:53:34;1.53;;;0.17;;
13279;SDS011;6708;49.814;8.652;2024-03-29T14:56:00;0.20;;;0.10;;